Time;durP1;ratioP1;P1;durP2;ratioP2;P2;SDS_P1;SDS_P2;PMS_P1;PMS_P2;Temp;Humidity;BMP_temperature;BMP_pressure;BME280_temperature;BME280_humidity;BME280_pressure;Samples;Min_cycle;Max_cycle;Signal;HPM_P1;HPM_P2
2022/07/19 00:01:37;;;;;;;5.50;3.67;;;;;;;;;;4919837;28;20334;-58
2022/07/19 00:04:03;;;;;;;5.00;3.27;;;;;;;;;;4943233;28;20245;-58
2022/07/19 00:06:29;;;;;;;3.40;3.10;;;;;;;;;;4913585;28;20761;-59
2022/07/19 00:08:55;;;;;;;4.77;2.90;;;;;;;;;;4944811;28;20426;-60
2022/07/19 00:11:21;;;;;;;4.03;3.60;;;;;;;;;;4933439;28;20605;-60
2022/07/19 00:13:47;;;;;;;4.33;3.80;;;;;;;;;;4956818;28;20179;-59
2022/07/19 00:16:14;;;;;;;4.73;3.83;;;;;;;;;;4941319;28;21578;-58
2022/07/19 00:18:40;;;;;;;3.40;2.90;;;;;;;;;;4944036;28;20444;-61
2022/07/19 00:21:06;;;;;;;3.80;3.50;;;;;;;;;;4933804;28;20447;-58
2022/07/19 00:23:32;;;;;;;5.03;3.10;;;;;;;;;;4954498;28;20470;-60
2022/07/19 00:25:58;;;;;;;3.30;2.97;;;;;;;;;;4908618;28;20274;-59
2022/07/19 00:28:24;;;;;;;4.20;3.30;;;;;;;;;;4940979;28;22339;-59
2022/07/19 00:30:50;;;;;;;4.57;3.70;;;;;;;;;;4938295;28;21420;-59
2022/07/19 00:33:17;;;;;;;4.40;4.00;;;;;;;;;;4937908;28;20477;-60
2022/07/19 00:35:43;;;;;;;4.30;3.47;;;;;;;;;;4915578;28;20357;-60
2022/07/19 00:38:09;;;;;;;4.70;3.50;;;;;;;;;;4955182;28;20452;-61
2022/07/19 00:40:36;;;;;;;3.83;3.40;;;;;;;;;;4919590;28;20435;-59
2022/07/19 00:43:02;;;;;;;3.43;3.13;;;;;;;;;;4941647;28;20455;-60
2022/07/19 00:45:28;;;;;;;3.67;3.03;;;;;;;;;;4917700;28;21267;-58
2022/07/19 00:47:54;;;;;;;4.47;3.43;;;;;;;;;;4938752;28;20453;-58
2022/07/19 00:50:20;;;;;;;3.43;3.03;;;;;;;;;;4922804;28;20190;-58
2022/07/19 00:52:46;;;;;;;5.40;3.80;;;;;;;;;;4940369;28;20443;-58
2022/07/19 00:55:12;;;;;;;4.97;3.80;;;;;;;;;;4933557;28;20447;-58
2022/07/19 00:57:38;;;;;;;7.13;3.83;;;;;;;;;;4941745;28;20465;-59
2022/07/19 01:00:05;;;;;;;6.13;4.00;;;;;;;;;;4913134;28;20458;-58
2022/07/19 01:02:31;;;;;;;5.00;4.00;;;;;;;;;;4938829;28;20470;-59
2022/07/19 01:04:57;;;;;;;6.57;3.90;;;;;;;;;;4921287;28;20818;-60
2022/07/19 01:07:23;;;;;;;4.30;3.50;;;;;;;;;;4938616;28;20481;-60
2022/07/19 01:09:50;;;;;;;4.07;3.67;;;;;;;;;;4917846;28;20482;-58
2022/07/19 01:12:16;;;;;;;3.83;3.53;;;;;;;;;;4946515;28;20998;-59
2022/07/19 01:14:42;;;;;;;5.60;3.50;;;;;;;;;;4902530;28;20754;-59
2022/07/19 01:17:09;;;;;;;4.90;3.80;;;;;;;;;;4941063;28;20540;-60
2022/07/19 01:19:35;;;;;;;4.50;3.70;;;;;;;;;;4936427;28;20184;-59
2022/07/19 01:22:01;;;;;;;3.63;3.30;;;;;;;;;;4940250;28;20486;-58
2022/07/19 01:24:27;;;;;;;4.90;4.17;;;;;;;;;;4919791;28;20225;-59
2022/07/19 01:26:53;;;;;;;5.07;3.43;;;;;;;;;;4941201;28;20446;-58
2022/07/19 01:29:19;;;;;;;4.43;3.63;;;;;;;;;;4901150;28;20426;-62
2022/07/19 01:31:45;;;;;;;4.53;3.73;;;;;;;;;;4941594;28;20910;-57
2022/07/19 01:34:11;;;;;;;4.83;3.53;;;;;;;;;;4935755;28;20431;-56
2022/07/19 01:36:37;;;;;;;4.70;4.30;;;;;;;;;;4940255;28;20481;-63
2022/07/19 01:39:03;;;;;;;3.60;3.27;;;;;;;;;;4937125;28;20441;-59
2022/07/19 01:41:29;;;;;;;6.03;4.00;;;;;;;;;;4941924;28;21531;-59
2022/07/19 01:43:55;;;;;;;3.47;3.10;;;;;;;;;;4919618;28;20550;-59
2022/07/19 01:46:21;;;;;;;3.60;3.30;;;;;;;;;;4940130;28;20453;-57
2022/07/19 01:48:47;;;;;;;3.70;3.27;;;;;;;;;;4920323;28;20191;-59
2022/07/19 01:51:13;;;;;;;4.60;3.50;;;;;;;;;;4943511;28;20505;-59
2022/07/19 01:53:39;;;;;;;4.03;3.47;;;;;;;;;;4930892;28;20882;-58
2022/07/19 01:56:07;;;;;;;5.03;3.53;;;;;;;;;;4928705;28;20300;-58
2022/07/19 01:58:33;;;;;;;4.73;3.83;;;;;;;;;;4929910;28;20447;-60
2022/07/19 02:01:00;;;;;;;4.37;3.60;;;;;;;;;;4940909;28;20439;-59
2022/07/19 02:03:26;;;;;;;4.03;3.33;;;;;;;;;;4911612;28;22096;-58
2022/07/19 02:05:52;;;;;;;3.77;3.47;;;;;;;;;;4924941;28;21587;-58
2022/07/19 02:08:18;;;;;;;4.53;3.37;;;;;;;;;;4945713;28;20442;-58
2022/07/19 02:10:44;;;;;;;4.97;3.40;;;;;;;;;;4928673;28;20468;-58
2022/07/19 02:13:10;;;;;;;3.63;3.07;;;;;;;;;;4947611;28;20470;-59
2022/07/19 02:15:36;;;;;;;4.10;3.57;;;;;;;;;;4922869;28;20777;-58
2022/07/19 02:18:02;;;;;;;4.07;3.67;;;;;;;;;;4945809;28;20171;-58
2022/07/19 02:20:28;;;;;;;5.00;4.17;;;;;;;;;;4905575;28;20517;-59
2022/07/19 02:22:54;;;;;;;3.80;3.30;;;;;;;;;;4940326;28;20529;-59
2022/07/19 02:25:20;;;;;;;4.60;3.67;;;;;;;;;;4920387;28;20454;-58
2022/07/19 02:27:46;;;;;;;3.63;3.30;;;;;;;;;;4942415;28;20482;-58
2022/07/19 02:30:12;;;;;;;4.67;3.90;;;;;;;;;;4939992;28;20455;-59
2022/07/19 02:32:38;;;;;;;3.93;3.20;;;;;;;;;;4942917;28;21250;-58
2022/07/19 02:35:07;;;;;;;4.10;3.63;;;;;;;;;;4925794;28;20460;-60
2022/07/19 02:37:33;;;;;;;4.40;4.00;;;;;;;;;;4919582;28;21007;-59
2022/07/19 02:40:00;;;;;;;6.20;4.13;;;;;;;;;;4923215;28;20478;-59
2022/07/19 02:42:26;;;;;;;4.60;3.20;;;;;;;;;;4936108;28;20454;-58
2022/07/19 02:44:52;;;;;;;3.90;3.50;;;;;;;;;;4928884;28;20434;-59
2022/07/19 02:47:18;;;;;;;4.27;3.43;;;;;;;;;;4931491;28;20487;-57
2022/07/19 02:49:44;;;;;;;4.47;3.43;;;;;;;;;;4934949;28;20454;-58
2022/07/19 02:52:10;;;;;;;3.93;3.63;;;;;;;;;;4929245;28;20450;-58
2022/07/19 02:54:36;;;;;;;5.20;3.97;;;;;;;;;;4942680;28;20853;-59
2022/07/19 02:57:02;;;;;;;4.20;3.80;;;;;;;;;;4935387;28;20539;-58
2022/07/19 02:59:28;;;;;;;3.90;3.47;;;;;;;;;;4941719;28;21247;-59
2022/07/19 03:01:54;;;;;;;4.27;3.73;;;;;;;;;;4921585;28;20768;-57
2022/07/19 03:04:20;;;;;;;4.73;3.70;;;;;;;;;;4929078;28;20864;-58
2022/07/19 03:06:47;;;;;;;4.30;3.20;;;;;;;;;;4930262;28;20443;-58
2022/07/19 03:09:13;;;;;;;4.90;3.20;;;;;;;;;;4917351;28;21007;-58
2022/07/19 03:11:40;;;;;;;4.30;3.80;;;;;;;;;;4938560;28;20443;-58
2022/07/19 03:14:06;;;;;;;4.30;3.30;;;;;;;;;;4921243;28;20442;-58
2022/07/19 03:16:33;;;;;;;3.80;3.40;;;;;;;;;;4942221;28;20474;-58
2022/07/19 03:18:59;;;;;;;4.10;3.70;;;;;;;;;;4916565;28;20434;-57
2022/07/19 03:21:25;;;;;;;4.10;3.70;;;;;;;;;;4940416;28;20521;-58
2022/07/19 03:23:51;;;;;;;3.60;3.30;;;;;;;;;;4919349;28;20267;-58
2022/07/19 03:26:16;;;;;;;4.33;3.73;;;;;;;;;;4936279;28;21655;-58
2022/07/19 03:28:42;;;;;;;7.73;3.50;;;;;;;;;;4917306;28;20188;-60
2022/07/19 03:31:09;;;;;;;4.53;3.67;;;;;;;;;;4947348;28;20454;-57
2022/07/19 03:33:37;;;;;;;6.50;3.23;;;;;;;;;;4938740;28;20435;-59
2022/07/19 03:36:04;;;;;;;3.50;2.87;;;;;;;;;;4936153;28;20621;-59
2022/07/19 03:38:30;;;;;;;5.80;4.00;;;;;;;;;;4924771;28;20450;-59
2022/07/19 03:40:56;;;;;;;4.03;3.23;;;;;;;;;;4942613;28;20438;-58
2022/07/19 03:43:30;;;;;;;4.70;3.47;;;;;;;;;;4932711;28;21481;-58
2022/07/19 03:46:15;;;;;;;4.57;4.17;;;;;;;;;;4946270;28;20647;-60
2022/07/19 03:48:41;;;;;;;5.47;4.20;;;;;;;;;;4918653;28;20457;-58
2022/07/19 03:51:07;;;;;;;5.57;4.50;;;;;;;;;;4946637;28;20443;-59
2022/07/19 03:53:36;;;;;;;6.70;3.40;;;;;;;;;;4920864;28;20455;-60
2022/07/19 03:56:03;;;;;;;4.50;4.10;;;;;;;;;;4940021;28;20469;-58
2022/07/19 03:58:29;;;;;;;4.50;4.10;;;;;;;;;;4921133;28;22535;-58
2022/07/19 04:00:59;;;;;;;5.40;3.73;;;;;;;;;;4934553;28;20992;-60
2022/07/19 04:03:29;;;;;;;6.33;3.60;;;;;;;;;;4941340;28;21484;-59
2022/07/19 04:05:55;;;;;;;6.87;4.00;;;;;;;;;;4933369;28;20894;-59
2022/07/19 04:08:23;;;;;;;3.90;3.53;;;;;;;;;;4953853;28;21002;-58
2022/07/19 04:10:49;;;;;;;4.43;3.60;;;;;;;;;;4923342;28;20466;-60
2022/07/19 04:13:15;;;;;;;5.90;3.53;;;;;;;;;;4943839;28;20971;-58
2022/07/19 04:15:42;;;;;;;5.00;4.17;;;;;;;;;;4918266;28;20310;-58
2022/07/19 04:18:11;;;;;;;3.33;3.00;;;;;;;;;;4945606;28;20179;-60
2022/07/19 04:20:45;;;;;;;8.03;3.77;;;;;;;;;;4921638;28;20446;-58
2022/07/19 04:23:11;;;;;;;5.60;3.93;;;;;;;;;;4942009;28;20517;-60
2022/07/19 04:25:40;;;;;;;5.50;3.33;;;;;;;;;;4926761;28;22138;-58
2022/07/19 04:28:07;;;;;;;6.73;3.63;;;;;;;;;;4943637;28;20179;-59
2022/07/19 04:30:33;;;;;;;3.73;3.30;;;;;;;;;;4932618;28;20450;-59
2022/07/19 04:32:59;;;;;;;4.13;3.20;;;;;;;;;;4942951;28;20454;-59
2022/07/19 04:35:25;;;;;;;4.03;3.40;;;;;;;;;;4930237;28;20443;-59
2022/07/19 04:37:51;;;;;;;7.40;3.90;;;;;;;;;;4942530;28;20218;-59
2022/07/19 04:40:17;;;;;;;5.23;3.70;;;;;;;;;;4937271;28;20917;-59
2022/07/19 04:42:42;;;;;;;4.60;3.53;;;;;;;;;;4941607;28;20195;-59
2022/07/19 04:45:09;;;;;;;4.63;3.70;;;;;;;;;;4905280;28;20218;-60
2022/07/19 04:47:35;;;;;;;7.50;3.97;;;;;;;;;;4937027;28;20195;-59
2022/07/19 04:50:01;;;;;;;4.37;3.37;;;;;;;;;;4913576;28;20446;-58
2022/07/19 04:52:26;;;;;;;3.90;3.40;;;;;;;;;;4923528;28;20457;-59
2022/07/19 04:54:53;;;;;;;5.97;3.10;;;;;;;;;;4944648;28;20457;-59
2022/07/19 04:57:19;;;;;;;3.93;3.53;;;;;;;;;;4911018;28;20829;-59
2022/07/19 04:59:45;;;;;;;4.03;3.20;;;;;;;;;;4941369;28;20439;-59
2022/07/19 05:02:11;;;;;;;6.67;4.03;;;;;;;;;;4937131;28;21059;-59
2022/07/19 05:04:37;;;;;;;4.00;3.50;;;;;;;;;;4941409;28;20470;-59
2022/07/19 05:07:02;;;;;;;5.67;4.07;;;;;;;;;;4933682;28;20477;-61
2022/07/19 05:09:29;;;;;;;4.37;3.97;;;;;;;;;;4942041;28;20454;-58
2022/07/19 05:11:55;;;;;;;6.37;4.10;;;;;;;;;;4938572;28;20511;-60
2022/07/19 05:14:21;;;;;;;4.97;4.07;;;;;;;;;;4940542;28;20465;-60
2022/07/19 05:17:21;;;;;;;6.50;3.80;;;;;;;;;;4945338;28;20474;-60
2022/07/19 05:19:49;;;;;;;4.63;3.83;;;;;;;;;;4946844;28;20422;-62
2022/07/19 05:22:28;;;;;;;11.77;4.90;;;;;;;;;;4964077;28;20442;-60
2022/07/19 05:24:55;;;;;;;6.97;4.53;;;;;;;;;;4949578;28;20481;-60
2022/07/19 05:27:21;;;;;;;4.27;3.87;;;;;;;;;;4935999;28;20434;-59
2022/07/19 05:29:47;;;;;;;8.20;4.77;;;;;;;;;;4947323;28;20805;-59
2022/07/19 05:32:13;;;;;;;9.50;5.30;;;;;;;;;;4943784;28;20450;-61
2022/07/19 05:34:39;;;;;;;7.70;5.43;;;;;;;;;;4961643;28;20266;-60
2022/07/19 05:37:15;;;;;;;4.47;4.07;;;;;;;;;;4937935;28;21129;-60
2022/07/19 05:39:41;;;;;;;8.93;4.80;;;;;;;;;;4944927;28;20427;-59
2022/07/19 05:42:07;;;;;;;5.73;4.50;;;;;;;;;;4927563;28;21281;-60
2022/07/19 05:44:33;;;;;;;8.17;4.40;;;;;;;;;;4946743;28;20450;-59
2022/07/19 05:46:59;;;;;;;5.27;4.77;;;;;;;;;;4948098;28;20508;-60
2022/07/19 05:49:25;;;;;;;6.23;4.50;;;;;;;;;;4947047;28;21129;-60
2022/07/19 05:51:52;;;;;;;5.57;4.13;;;;;;;;;;4921321;28;20586;-61
2022/07/19 05:54:18;;;;;;;5.57;4.90;;;;;;;;;;4936544;28;20816;-61
2022/07/19 05:57:04;;;;;;;6.60;5.90;;;;;;;;;;4938741;28;20502;-60
2022/07/19 05:59:30;;;;;;;6.97;5.00;;;;;;;;;;4945570;28;20434;-60
2022/07/19 06:01:57;;;;;;;6.63;5.60;;;;;;;;;;4941890;28;20971;-62
2022/07/19 06:04:23;;;;;;;7.10;4.93;;;;;;;;;;4950802;28;20254;-59
2022/07/19 06:06:49;;;;;;;11.40;5.60;;;;;;;;;;4933473;28;20799;-60
2022/07/19 06:09:15;;;;;;;10.23;5.77;;;;;;;;;;4940977;28;20204;-60
2022/07/19 06:11:42;;;;;;;12.60;5.17;;;;;;;;;;4940209;28;20866;-59
2022/07/19 06:14:08;;;;;;;10.03;5.60;;;;;;;;;;4936895;28;20453;-61
2022/07/19 06:16:35;;;;;;;6.03;5.10;;;;;;;;;;4947930;28;20521;-61
2022/07/19 06:19:01;;;;;;;6.30;5.00;;;;;;;;;;4945896;28;20434;-60
2022/07/19 06:21:29;;;;;;;10.77;5.30;;;;;;;;;;4935504;28;20458;-61
2022/07/19 06:23:56;;;;;;;6.30;5.10;;;;;;;;;;4938916;28;20194;-61
2022/07/19 06:26:45;;;;;;;5.80;5.20;;;;;;;;;;4945471;28;20447;-61
2022/07/19 06:29:11;;;;;;;9.43;4.40;;;;;;;;;;4918058;28;20446;-60
2022/07/19 06:31:37;;;;;;;8.00;4.47;;;;;;;;;;4941532;28;20431;-61
2022/07/19 06:34:03;;;;;;;6.23;4.60;;;;;;;;;;4937411;28;20860;-61
2022/07/19 06:36:29;;;;;;;4.50;3.63;;;;;;;;;;4943708;28;20589;-61
2022/07/19 06:39:13;;;;;;;6.03;4.20;;;;;;;;;;4941058;28;20431;-62
2022/07/19 06:41:41;;;;;;;6.23;4.53;;;;;;;;;;4946264;28;20443;-60
2022/07/19 06:44:06;;;;;;;7.30;3.60;;;;;;;;;;4948574;28;20446;-59
2022/07/19 06:46:32;;;;;;;7.10;4.27;;;;;;;;;;4949283;28;20449;-59
2022/07/19 06:48:59;;;;;;;4.57;3.60;;;;;;;;;;4929901;28;20190;-60
2022/07/19 06:51:25;;;;;;;4.30;3.40;;;;;;;;;;4948630;28;20526;-59
2022/07/19 06:53:52;;;;;;;4.60;3.97;;;;;;;;;;4906401;28;20648;-62
2022/07/19 06:56:18;;;;;;;6.00;3.83;;;;;;;;;;4942288;28;20484;-60
2022/07/19 06:58:44;;;;;;;10.07;3.67;;;;;;;;;;4928647;28;21314;-60
2022/07/19 07:01:10;;;;;;;5.17;2.63;;;;;;;;;;4943253;28;20449;-59
2022/07/19 07:03:44;;;;;;;5.37;3.00;;;;;;;;;;4949016;28;23076;-60
2022/07/19 07:06:11;;;;;;;4.97;3.17;;;;;;;;;;4949259;28;20517;-59
2022/07/19 07:08:37;;;;;;;4.30;3.30;;;;;;;;;;4929139;28;20442;-60
2022/07/19 07:11:03;;;;;;;4.50;3.40;;;;;;;;;;4944013;28;20478;-61
2022/07/19 07:13:29;;;;;;;3.53;3.03;;;;;;;;;;4946156;28;20971;-60
2022/07/19 07:15:55;;;;;;;7.50;3.30;;;;;;;;;;4944069;28;20477;-60
2022/07/19 07:18:32;;;;;;;8.00;3.43;;;;;;;;;;4938493;28;20531;-59
2022/07/19 07:20:59;;;;;;;5.50;2.90;;;;;;;;;;4917237;28;20962;-59
2022/07/19 07:23:25;;;;;;;9.10;3.37;;;;;;;;;;4942927;28;20513;-59
2022/07/19 07:25:53;;;;;;;3.70;2.73;;;;;;;;;;4906877;28;20442;-59
2022/07/19 07:28:20;;;;;;;2.80;2.60;;;;;;;;;;4939129;28;20439;-59
2022/07/19 07:30:46;;;;;;;6.27;3.40;;;;;;;;;;4919843;28;20566;-59
2022/07/19 07:33:27;;;;;;;4.60;3.30;;;;;;;;;;4942165;28;21052;-61
2022/07/19 07:35:56;;;;;;;7.27;3.13;;;;;;;;;;4937844;28;20514;-60
2022/07/19 07:38:22;;;;;;;6.83;3.77;;;;;;;;;;4925660;28;20519;-60
2022/07/19 07:40:48;;;;;;;4.03;3.63;;;;;;;;;;4944756;28;20453;-60
2022/07/19 07:43:14;;;;;;;5.43;3.90;;;;;;;;;;4933464;28;20506;-59
2022/07/19 07:45:40;;;;;;;4.93;3.43;;;;;;;;;;4950035;28;21165;-59
2022/07/19 07:48:06;;;;;;;11.17;3.50;;;;;;;;;;4939817;28;20446;-58
2022/07/19 07:50:32;;;;;;;5.50;3.23;;;;;;;;;;4949867;28;20477;-60
2022/07/19 07:52:58;;;;;;;5.77;3.70;;;;;;;;;;4944741;28;20474;-60
2022/07/19 07:55:24;;;;;;;3.93;2.93;;;;;;;;;;4948950;28;20471;-59
2022/07/19 07:57:50;;;;;;;4.10;3.47;;;;;;;;;;4911284;28;20562;-59
2022/07/19 08:00:16;;;;;;;7.53;3.17;;;;;;;;;;4946502;28;20227;-59
2022/07/19 08:02:43;;;;;;;7.33;3.40;;;;;;;;;;4924913;28;20213;-59
2022/07/19 08:05:09;;;;;;;3.83;3.33;;;;;;;;;;4949364;28;20438;-59
2022/07/19 08:07:35;;;;;;;6.37;3.67;;;;;;;;;;4939859;28;20944;-59
2022/07/19 08:10:01;;;;;;;4.53;3.40;;;;;;;;;;4945451;28;20463;-57
2022/07/19 08:12:27;;;;;;;4.47;3.73;;;;;;;;;;4930192;28;20458;-59
2022/07/19 08:14:53;;;;;;;5.10;3.50;;;;;;;;;;4959888;28;21256;-59
2022/07/19 08:17:19;;;;;;;7.53;4.00;;;;;;;;;;4934334;28;20483;-60
2022/07/19 08:19:45;;;;;;;4.77;3.10;;;;;;;;;;4945467;28;20446;-58
2022/07/19 08:22:18;;;;;;;3.80;3.30;;;;;;;;;;4942757;28;20446;-59
2022/07/19 08:24:48;;;;;;;6.10;2.80;;;;;;;;;;4948132;28;20233;-60
2022/07/19 08:27:14;;;;;;;4.33;3.20;;;;;;;;;;4931453;28;20446;-59
2022/07/19 08:29:40;;;;;;;5.60;2.90;;;;;;;;;;4927895;28;20446;-59
2022/07/19 08:32:06;;;;;;;3.20;2.67;;;;;;;;;;4943061;28;20962;-57
2022/07/19 08:34:32;;;;;;;9.40;2.30;;;;;;;;;;4922947;28;21039;-60
2022/07/19 08:37:00;;;;;;;6.20;2.63;;;;;;;;;;4942378;28;20487;-59
2022/07/19 08:39:26;;;;;;;4.87;2.63;;;;;;;;;;4945765;28;20451;-58
2022/07/19 08:41:52;;;;;;;3.30;2.70;;;;;;;;;;4947492;28;20462;-59
2022/07/19 08:44:18;;;;;;;2.83;2.40;;;;;;;;;;4928947;28;20196;-60
2022/07/19 08:46:44;;;;;;;4.87;3.00;;;;;;;;;;4944876;28;20478;-58
2022/07/19 08:49:10;;;;;;;6.90;2.73;;;;;;;;;;4936563;28;20534;-59
2022/07/19 08:51:36;;;;;;;3.67;2.37;;;;;;;;;;4948812;28;20451;-58
2022/07/19 08:54:02;;;;;;;3.70;2.87;;;;;;;;;;4946882;28;20454;-60
2022/07/19 08:59:13;;;;;;;3.33;2.43;;;;;;;;;;4948133;28;20520;-60
2022/07/19 09:01:42;;;;;;;5.03;3.10;;;;;;;;;;4949792;28;21297;-60
2022/07/19 09:04:10;;;;;;;4.30;2.50;;;;;;;;;;4908505;28;20514;-60
2022/07/19 09:06:40;;;;;;;2.87;2.67;;;;;;;;;;4944831;28;20458;-58
2022/07/19 09:09:07;;;;;;;4.10;2.70;;;;;;;;;;4921287;28;20443;-59
2022/07/19 09:11:34;;;;;;;6.67;4.03;;;;;;;;;;4951284;28;20443;-59
2022/07/19 09:14:09;;;;;;;3.17;2.57;;;;;;;;;;4922671;28;20458;-62
2022/07/19 09:16:51;;;;;;;5.80;2.90;;;;;;;;;;4946969;28;20482;-58
2022/07/19 09:19:17;;;;;;;7.13;2.87;;;;;;;;;;4933108;28;20442;-58
2022/07/19 09:22:00;;;;;;;14.30;3.97;;;;;;;;;;4948489;28;20451;-62
2022/07/19 09:24:27;;;;;;;3.90;2.30;;;;;;;;;;4943001;28;20459;-59
2022/07/19 09:27:04;;;;;;;2.90;2.50;;;;;;;;;;4946515;28;20439;-58
2022/07/19 09:29:31;;;;;;;3.20;2.90;;;;;;;;;;4945391;28;20465;-60
2022/07/19 09:32:16;;;;;;;6.23;2.60;;;;;;;;;;4944815;28;20447;-59
2022/07/19 09:34:43;;;;;;;3.10;2.60;;;;;;;;;;4905411;28;20478;-58
2022/07/19 09:37:12;;;;;;;4.20;2.80;;;;;;;;;;4945904;28;20521;-60
2022/07/19 09:39:44;;;;;;;4.80;2.87;;;;;;;;;;4924691;28;21011;-59
2022/07/19 09:42:13;;;;;;;3.20;2.77;;;;;;;;;;4947207;28;20478;-58
2022/07/19 09:44:39;;;;;;;3.30;2.40;;;;;;;;;;4929797;28;20431;-59
2022/07/19 09:47:05;;;;;;;3.63;2.80;;;;;;;;;;4949093;28;20439;-57
2022/07/19 09:49:31;;;;;;;4.37;2.60;;;;;;;;;;4944232;28;20442;-59
2022/07/19 09:51:58;;;;;;;4.43;3.50;;;;;;;;;;4945086;28;20992;-59
2022/07/19 09:54:25;;;;;;;4.13;2.90;;;;;;;;;;4925213;28;20953;-59
2022/07/19 09:56:51;;;;;;;4.57;3.17;;;;;;;;;;4943505;28;20490;-59
2022/07/19 09:59:17;;;;;;;4.70;3.20;;;;;;;;;;4923118;28;20850;-58
2022/07/19 10:01:43;;;;;;;5.03;3.30;;;;;;;;;;4944213;28;20529;-60
2022/07/19 10:07:14;;;;;;;4.70;2.90;;;;;;;;;;4899559;28;20453;-59
2022/07/19 10:09:40;;;;;;;3.47;2.90;;;;;;;;;;4947959;28;20445;-59
2022/07/19 10:12:18;;;;;;;5.53;2.97;;;;;;;;;;4909309;28;20439;-60
2022/07/19 10:14:48;;;;;;;12.43;3.40;;;;;;;;;;4940507;28;20494;-59
2022/07/19 10:17:37;;;;;;;5.90;2.90;;;;;;;;;;4955533;28;20541;-59
2022/07/19 10:20:29;;;;;;;4.20;3.70;;;;;;;;;;4940910;28;20436;-59
2022/07/19 10:23:03;;;;;;;5.47;3.40;;;;;;;;;;4906630;28;21377;-59
2022/07/19 10:25:42;;;;;;;5.17;3.43;;;;;;;;;;4927152;28;21149;-60
2022/07/19 10:28:28;;;;;;;4.53;4.13;;;;;;;;;;4924587;28;22807;-59
2022/07/19 10:30:55;;;;;;;6.37;3.27;;;;;;;;;;4940121;28;20454;-60
2022/07/19 10:33:45;;;;;;;3.17;2.60;;;;;;;;;;4961603;28;20463;-59
2022/07/19 10:36:30;;;;;;;4.90;2.90;;;;;;;;;;4943530;28;20537;-60
2022/07/19 10:39:15;;;;;;;5.27;3.20;;;;;;;;;;4935967;28;20434;-59
2022/07/19 10:41:45;;;;;;;5.30;3.20;;;;;;;;;;4942339;28;20502;-59
2022/07/19 10:44:12;;;;;;;6.23;4.13;;;;;;;;;;4934028;28;20534;-57
2022/07/19 10:46:38;;;;;;;4.20;3.80;;;;;;;;;;4947607;28;20864;-56
2022/07/19 10:49:04;;;;;;;3.90;2.93;;;;;;;;;;4921403;28;20507;-56
2022/07/19 10:51:33;;;;;;;5.10;3.03;;;;;;;;;;4944864;28;20567;-57
2022/07/19 10:54:03;;;;;;;5.10;3.00;;;;;;;;;;4945399;28;20818;-56
2022/07/19 10:56:36;;;;;;;3.07;2.67;;;;;;;;;;4940881;28;20736;-57
2022/07/19 10:59:07;;;;;;;5.40;3.40;;;;;;;;;;4922110;28;20438;-56
2022/07/19 11:01:33;;;;;;;3.90;3.00;;;;;;;;;;4943200;28;20994;-56
2022/07/19 11:04:18;;;;;;;4.23;3.10;;;;;;;;;;4929186;28;20443;-56
2022/07/19 11:06:44;;;;;;;3.77;3.17;;;;;;;;;;4936657;28;20439;-56
2022/07/19 11:09:10;;;;;;;5.10;3.00;;;;;;;;;;4937259;28;20443;-58
2022/07/19 11:11:36;;;;;;;3.80;2.80;;;;;;;;;;4937841;28;21036;-57
2022/07/19 11:14:19;;;;;;;3.30;2.30;;;;;;;;;;4942356;28;20439;-57
2022/07/19 11:16:47;;;;;;;4.03;2.70;;;;;;;;;;4942703;28;21062;-55
2022/07/19 11:19:29;;;;;;;3.90;3.37;;;;;;;;;;4935449;28;20453;-56
2022/07/19 11:21:56;;;;;;;4.40;3.17;;;;;;;;;;4946009;28;20446;-56
2022/07/19 11:24:22;;;;;;;6.30;3.10;;;;;;;;;;4922578;28;20845;-56
2022/07/19 11:26:49;;;;;;;4.00;3.00;;;;;;;;;;4943953;28;20435;-58
2022/07/19 11:29:51;;;;;;;5.63;3.63;;;;;;;;;;4930919;28;20438;-57
2022/07/19 11:32:19;;;;;;;4.33;3.27;;;;;;;;;;4920986;28;20441;-57
2022/07/19 11:34:58;;;;;;;3.30;2.80;;;;;;;;;;4917840;28;20497;-56
2022/07/19 11:37:25;;;;;;;4.77;3.40;;;;;;;;;;4945836;28;20536;-56
2022/07/19 11:39:51;;;;;;;5.50;3.00;;;;;;;;;;4906172;28;20987;-56
2022/07/19 11:42:37;;;;;;;4.90;3.07;;;;;;;;;;4946080;28;20517;-56
2022/07/19 11:45:30;;;;;;;4.07;3.50;;;;;;;;;;4932124;28;20497;-57
2022/07/19 11:48:02;;;;;;;4.73;3.13;;;;;;;;;;4949215;28;20446;-57
2022/07/19 11:50:34;;;;;;;4.73;3.63;;;;;;;;;;4947444;28;20442;-57
2022/07/19 11:53:00;;;;;;;3.73;3.33;;;;;;;;;;4951436;28;20877;-57
2022/07/19 11:55:27;;;;;;;7.40;3.20;;;;;;;;;;4951331;28;21102;-57
2022/07/19 11:57:54;;;;;;;4.20;3.67;;;;;;;;;;4966204;28;20470;-57
2022/07/19 12:00:20;;;;;;;7.47;3.50;;;;;;;;;;4935427;28;20566;-56
2022/07/19 12:02:52;;;;;;;4.20;3.10;;;;;;;;;;4943578;28;20466;-56
2022/07/19 12:05:18;;;;;;;3.67;3.03;;;;;;;;;;4943375;28;20936;-57
2022/07/19 12:08:04;;;;;;;4.20;3.10;;;;;;;;;;4931154;28;21094;-57
2022/07/19 12:10:35;;;;;;;5.93;3.63;;;;;;;;;;4951705;28;21161;-57
2022/07/19 12:13:36;;;;;;;6.30;3.10;;;;;;;;;;4942010;28;20458;-57
2022/07/19 12:16:09;;;;;;;4.60;3.47;;;;;;;;;;4946395;28;20322;-56
2022/07/19 12:18:59;;;;;;;4.67;3.20;;;;;;;;;;4926357;28;20450;-58
2022/07/19 12:21:27;;;;;;;7.23;3.33;;;;;;;;;;4944819;28;20565;-56
2022/07/19 12:24:15;;;;;;;4.33;2.93;;;;;;;;;;4924341;28;20434;-57
2022/07/19 12:27:00;;;;;;;2.90;2.60;;;;;;;;;;4946521;28;20477;-57
2022/07/19 12:29:26;;;;;;;4.93;4.00;;;;;;;;;;4931040;28;20454;-56
2022/07/19 12:31:53;;;;;;;3.67;3.37;;;;;;;;;;4939181;28;20442;-58
2022/07/19 12:34:20;;;;;;;5.63;3.47;;;;;;;;;;4928892;28;20450;-56
2022/07/19 12:36:46;;;;;;;4.20;3.57;;;;;;;;;;4943299;28;20482;-58
2022/07/19 12:39:18;;;;;;;6.80;3.53;;;;;;;;;;4932563;28;20509;-56
2022/07/19 12:41:54;;;;;;;3.13;2.80;;;;;;;;;;4945593;28;20439;-57
2022/07/19 12:44:21;;;;;;;3.80;3.40;;;;;;;;;;4940933;28;20434;-56
2022/07/19 12:47:23;;;;;;;4.20;3.30;;;;;;;;;;4943468;28;20442;-57
2022/07/19 12:50:10;;;;;;;4.63;3.63;;;;;;;;;;4946009;28;20530;-58
2022/07/19 12:52:39;;;;;;;8.30;3.63;;;;;;;;;;4932317;28;22466;-59
2022/07/19 12:55:07;;;;;;;6.60;3.87;;;;;;;;;;4925374;28;20434;-57
2022/07/19 12:57:34;;;;;;;3.83;3.40;;;;;;;;;;4947985;28;20505;-56
2022/07/19 13:00:00;;;;;;;4.80;4.07;;;;;;;;;;4924591;28;20503;-56
2022/07/19 13:02:26;;;;;;;4.20;3.80;;;;;;;;;;4945790;28;20987;-57
2022/07/19 13:04:52;;;;;;;6.97;3.83;;;;;;;;;;4923550;28;20450;-58
2022/07/19 13:07:19;;;;;;;6.87;3.47;;;;;;;;;;4941714;28;20245;-64
2022/07/19 13:09:45;;;;;;;6.23;4.07;;;;;;;;;;4909083;28;20472;-57
2022/07/19 13:12:11;;;;;;;5.73;3.30;;;;;;;;;;4947414;28;20450;-57
2022/07/19 13:14:38;;;;;;;5.03;3.70;;;;;;;;;;4944209;28;20439;-56
2022/07/19 13:17:05;;;;;;;5.73;4.10;;;;;;;;;;4944329;28;20496;-57
2022/07/19 13:19:31;;;;;;;4.53;4.10;;;;;;;;;;4916552;28;21315;-58
2022/07/19 13:21:58;;;;;;;4.07;3.67;;;;;;;;;;4946979;28;20435;-57
2022/07/19 13:24:24;;;;;;;6.60;4.67;;;;;;;;;;4944087;28;20442;-57
2022/07/19 13:26:50;;;;;;;7.93;4.50;;;;;;;;;;4931336;28;20453;-58
2022/07/19 13:29:16;;;;;;;3.50;3.20;;;;;;;;;;4921767;28;20443;-58
2022/07/19 13:31:42;;;;;;;3.80;3.30;;;;;;;;;;4949899;28;20184;-58
2022/07/19 13:34:31;;;;;;;5.33;3.73;;;;;;;;;;4947889;28;20450;-59
2022/07/19 13:37:01;;;;;;;5.40;3.60;;;;;;;;;;4953564;28;20474;-58
2022/07/19 13:39:28;;;;;;;4.93;3.37;;;;;;;;;;4942659;28;20434;-59
2022/07/19 13:41:54;;;;;;;5.73;3.50;;;;;;;;;;4939810;28;21050;-58
2022/07/19 13:44:20;;;;;;;6.13;3.97;;;;;;;;;;4943724;28;21010;-58
2022/07/19 13:46:46;;;;;;;5.70;3.57;;;;;;;;;;4945997;28;20569;-57
2022/07/19 13:49:11;;;;;;;5.90;4.20;;;;;;;;;;4929602;28;20198;-60
2022/07/19 13:51:38;;;;;;;5.47;4.37;;;;;;;;;;4928902;28;21111;-59
2022/07/19 13:54:05;;;;;;;4.73;4.33;;;;;;;;;;4940487;28;20184;-59
2022/07/19 13:56:31;;;;;;;4.27;3.57;;;;;;;;;;4932635;28;20478;-59
2022/07/19 13:59:03;;;;;;;5.00;3.80;;;;;;;;;;4941331;28;20649;-57
2022/07/19 14:01:30;;;;;;;4.37;3.73;;;;;;;;;;4910944;28;20447;-58
2022/07/19 14:03:56;;;;;;;4.73;4.10;;;;;;;;;;4927898;28;20446;-59
2022/07/19 14:06:22;;;;;;;5.00;4.50;;;;;;;;;;4944560;28;20451;-59
2022/07/19 14:08:48;;;;;;;4.50;3.67;;;;;;;;;;4927799;28;21069;-58
2022/07/19 14:11:16;;;;;;;10.40;4.00;;;;;;;;;;4941472;28;20439;-59
2022/07/19 14:13:42;;;;;;;4.10;3.70;;;;;;;;;;4928240;28;20451;-59
2022/07/19 14:16:08;;;;;;;3.93;3.63;;;;;;;;;;4942257;28;20502;-59
2022/07/19 14:18:35;;;;;;;5.73;3.67;;;;;;;;;;4932783;28;20380;-58
2022/07/19 14:21:01;;;;;;;4.90;3.27;;;;;;;;;;4945997;28;20425;-59
2022/07/19 14:23:42;;;;;;;4.60;3.70;;;;;;;;;;4936743;28;20450;-59
2022/07/19 14:26:09;;;;;;;5.40;3.60;;;;;;;;;;4946873;28;20545;-59
2022/07/19 14:28:35;;;;;;;4.80;3.60;;;;;;;;;;4920728;28;20446;-58
2022/07/19 14:31:01;;;;;;;7.53;3.83;;;;;;;;;;4945516;28;20515;-57
2022/07/19 14:33:27;;;;;;;3.93;3.30;;;;;;;;;;4937701;28;20470;-57
2022/07/19 14:35:54;;;;;;;5.80;3.50;;;;;;;;;;4917850;28;20459;-58
2022/07/19 14:38:25;;;;;;;4.47;3.70;;;;;;;;;;4950949;28;20453;-58
2022/07/19 14:40:51;;;;;;;8.20;3.87;;;;;;;;;;4919490;28;21173;-62
2022/07/19 14:43:17;;;;;;;3.80;3.40;;;;;;;;;;4952865;28;20450;-58
2022/07/19 14:45:43;;;;;;;6.93;3.63;;;;;;;;;;4935227;28;20982;-56
2022/07/19 14:48:10;;;;;;;4.37;3.70;;;;;;;;;;4944633;28;20443;-58
2022/07/19 14:50:43;;;;;;;5.77;3.67;;;;;;;;;;4937409;28;20580;-59
2022/07/19 14:53:12;;;;;;;3.60;3.13;;;;;;;;;;4941642;28;20947;-59
2022/07/19 14:55:38;;;;;;;5.67;3.23;;;;;;;;;;4893518;28;20447;-57
2022/07/19 14:58:05;;;;;;;6.33;3.23;;;;;;;;;;4932715;28;20513;-59